createdAt,value
2023-04-17T00:00:21.052Z,100095.75
2023-04-17T00:03:23.058Z,100100.66
2023-04-17T00:06:27.380Z,100105.09
2023-04-17T00:09:29.973Z,100105.34
2023-04-17T00:12:31.764Z,100103.25
2023-04-17T00:15:33.618Z,100103.41
2023-04-17T00:18:35.428Z,100094.97
2023-04-17T00:21:37.279Z,100089.19
2023-04-17T00:24:39.117Z,100097.44
2023-04-17T00:27:41.827Z,100097.72
2023-04-17T00:30:43.677Z,100094.87
2023-04-17T00:33:46.447Z,100095.28
2023-04-17T00:36:48.457Z,100086.09
2023-04-17T00:39:50.402Z,100098.28
2023-04-17T00:42:56.131Z,100102.44
2023-04-17T00:45:59.362Z,100098.37
2023-04-17T00:49:01.384Z,100099.97
2023-04-17T00:52:03.269Z,100075.41
2023-04-17T00:55:05.330Z,100099.38
2023-04-17T00:58:07.205Z,100095.63
2023-04-17T01:01:09.366Z,100089.19
2023-04-17T01:04:12.018Z,100089.22
2023-04-17T01:07:14.160Z,100096.03
2023-04-17T01:10:15.973Z,100102.72
2023-04-17T01:13:17.922Z,100094.69
2023-04-17T01:16:19.878Z,100093.34
2023-04-17T01:19:21.750Z,100086.56
2023-04-17T01:22:23.605Z,100095.00
2023-04-17T01:25:26.063Z,100086.62
2023-04-17T01:28:27.905Z,100080.53
2023-04-17T01:31:30.193Z,100081.56
2023-04-17T01:34:32.167Z,100085.31
2023-04-17T01:37:36.151Z,100078.22
2023-04-17T01:40:38.060Z,100081.97
2023-04-17T01:43:40.803Z,100085.63
2023-04-17T01:46:42.722Z,100083.31
2023-04-17T01:49:44.675Z,100074.47
2023-04-17T01:52:46.637Z,100081.37
2023-04-17T01:55:48.462Z,100078.16
2023-04-17T01:58:51.750Z,100082.69
2023-04-17T02:01:53.774Z,100084.25
2023-04-17T02:04:55.721Z,100084.28
2023-04-17T02:07:57.538Z,100079.41
2023-04-17T02:10:59.431Z,100083.19
2023-04-17T02:14:01.475Z,100085.94
2023-04-17T02:17:03.466Z,100094.41
2023-04-17T02:20:07.338Z,100083.16
2023-04-17T02:23:09.220Z,100089.13
2023-04-17T02:26:11.146Z,100089.59
2023-04-17T02:29:13.179Z,100088.09
2023-04-17T02:32:15.814Z,100075.31
2023-04-17T02:35:18.108Z,100085.13
2023-04-17T02:38:20.016Z,100079.88
2023-04-17T02:41:22.055Z,100083.34
2023-04-17T02:44:23.935Z,100081.19
2023-04-17T02:47:25.804Z,100077.47
2023-04-17T02:50:27.659Z,100076.62
2023-04-17T02:53:29.506Z,100080.25
2023-04-17T02:56:31.332Z,100077.75
2023-04-17T02:59:33.255Z,100085.16
2023-04-17T03:02:35.237Z,100081.31
2023-04-17T03:05:37.237Z,100086.25
2023-04-17T03:08:39.131Z,100085.16
2023-04-17T03:11:40.987Z,100094.87
2023-04-17T03:14:43.238Z,100094.37
2023-04-17T03:17:45.101Z,100096.22
2023-04-17T03:20:47.088Z,100092.13
2023-04-17T03:23:48.984Z,100091.00
2023-04-17T03:26:51.166Z,100088.34
2023-04-17T03:29:53.973Z,100090.31
2023-04-17T03:32:56.363Z,100088.75
2023-04-17T03:35:58.243Z,100088.16
2023-04-17T03:39:00.176Z,100089.47
2023-04-17T03:42:02.024Z,100092.34
2023-04-17T03:45:04.756Z,100074.31
2023-04-17T03:48:07.399Z,100096.22
2023-04-17T03:51:09.313Z,100091.56
2023-04-17T03:54:11.335Z,100094.44
2023-04-17T03:57:13.241Z,100098.19
2023-04-17T04:00:16.393Z,100095.66
2023-04-17T04:03:18.377Z,100106.78
2023-04-17T04:06:20.869Z,100098.25
2023-04-17T04:09:22.782Z,100100.72
2023-04-17T04:12:24.682Z,100105.22
2023-04-17T04:15:26.682Z,100109.16
2023-04-17T04:18:28.505Z,100113.56
2023-04-17T04:21:30.420Z,100098.97
2023-04-17T04:24:33.982Z,100107.84
2023-04-17T04:27:36.042Z,100112.72
2023-04-17T04:30:38.795Z,100113.19
2023-04-17T04:33:40.691Z,100114.91
2023-04-17T04:36:49.928Z,100121.97
2023-04-17T04:39:54.136Z,100127.97
2023-04-17T04:42:57.130Z,100125.22
2023-04-17T04:45:59.211Z,100142.53
2023-04-17T04:49:01.093Z,100147.53
2023-04-17T04:52:02.936Z,100148.06
2023-04-17T04:55:05.071Z,100141.22
2023-04-17T04:58:07.053Z,100151.34
2023-04-17T05:01:09.183Z,100156.41
2023-04-17T05:04:11.296Z,100150.75
2023-04-17T05:07:13.388Z,100156.53
2023-04-17T05:10:15.691Z,100145.41
2023-04-17T05:13:17.674Z,100162.22
2023-04-17T05:16:19.585Z,100160.97
2023-04-17T05:19:21.765Z,100165.87
2023-04-17T05:22:23.814Z,100158.87
2023-04-17T05:25:25.768Z,100158.50
2023-04-17T05:28:33.803Z,100160.47
2023-04-17T05:31:36.887Z,100155.47
2023-04-17T05:34:38.967Z,100165.00
2023-04-17T05:37:41.318Z,100160.41
2023-04-17T05:40:43.236Z,100168.84
2023-04-17T05:43:45.321Z,100161.41
2023-04-17T05:46:47.186Z,100159.63
2023-04-17T05:49:51.309Z,100160.78
2023-04-17T05:52:53.551Z,100166.25
2023-04-17T05:55:55.432Z,100178.34
2023-04-17T05:58:57.283Z,100166.03
2023-04-17T06:01:59.909Z,100181.00
2023-04-17T06:05:02.360Z,100183.09
2023-04-17T06:08:04.486Z,100182.78
2023-04-17T06:11:06.471Z,100183.00
2023-04-17T06:14:08.453Z,100177.44
2023-04-17T06:17:13.317Z,100175.25
2023-04-17T06:20:15.363Z,100181.75
2023-04-17T06:23:17.320Z,100185.19
2023-04-17T06:26:19.475Z,100168.34
2023-04-17T06:29:21.420Z,100191.41
2023-04-17T06:32:23.360Z,100195.31
2023-04-17T06:35:25.256Z,100197.72
2023-04-17T06:38:27.193Z,100196.69
2023-04-17T06:41:29.169Z,100199.53
2023-04-17T06:44:31.161Z,100207.06
2023-04-17T06:47:33.172Z,100201.41
2023-04-17T06:50:35.378Z,100204.47
2023-04-17T06:53:37.311Z,100205.03
2023-04-17T06:56:39.202Z,100191.03
2023-04-17T06:59:41.138Z,100208.50
2023-04-17T07:02:43.163Z,100213.56
2023-04-17T07:05:45.261Z,100213.66
2023-04-17T07:08:47.125Z,100212.12
2023-04-17T07:11:49.076Z,100196.50
2023-04-17T07:14:51.339Z,100212.31
2023-04-17T07:17:53.531Z,100209.25
2023-04-17T07:20:57.025Z,100204.62
2023-04-17T07:23:58.887Z,100206.03
2023-04-17T07:27:04.012Z,100209.22
2023-04-17T07:30:12.505Z,100215.72
2023-04-17T07:33:14.424Z,100201.72
2023-04-17T07:36:16.347Z,100195.31
2023-04-17T07:39:18.743Z,100211.97
2023-04-17T07:42:20.574Z,100208.38
2023-04-17T07:45:22.845Z,100207.63
2023-04-17T07:48:25.017Z,100210.63
2023-04-17T07:51:30.293Z,100217.03
2023-04-17T07:54:32.334Z,100205.72
2023-04-17T07:57:34.285Z,100217.34
2023-04-17T08:00:36.579Z,100204.34
2023-04-17T08:03:41.511Z,100204.84
2023-04-17T08:06:44.434Z,100206.63
2023-04-17T08:09:46.820Z,100203.28
2023-04-17T08:12:48.887Z,100204.25
2023-04-17T08:15:52.287Z,100192.19
2023-04-17T08:18:54.138Z,100197.78
2023-04-17T08:22:01.325Z,100200.41
2023-04-17T08:25:03.757Z,100197.94
2023-04-17T08:28:05.785Z,100199.22
2023-04-17T08:31:08.877Z,100202.28
2023-04-17T08:34:14.942Z,100198.62
2023-04-17T08:37:17.583Z,100193.00
2023-04-17T08:40:23.286Z,100194.84
2023-04-17T08:43:26.182Z,100198.09
2023-04-17T08:46:28.314Z,100186.56
2023-04-17T08:49:30.412Z,100194.16
2023-04-17T08:52:32.321Z,100190.44
2023-04-17T08:55:34.371Z,100195.69
2023-04-17T08:58:36.350Z,100205.50
2023-04-17T09:01:38.881Z,100197.31
2023-04-17T09:04:42.204Z,100191.22
2023-04-17T09:07:44.568Z,100200.75
2023-04-17T09:10:47.357Z,100182.41
2023-04-17T09:13:49.304Z,100189.16
2023-04-17T09:16:55.017Z,100197.25
2023-04-17T09:20:09.350Z,100192.31
2023-04-17T09:23:12.233Z,100187.41
2023-04-17T09:26:15.004Z,100192.38
2023-04-17T09:29:17.253Z,100187.19
2023-04-17T09:32:19.264Z,100188.81
2023-04-17T09:35:26.045Z,100191.88
2023-04-17T09:38:38.207Z,100187.94
2023-04-17T09:41:40.129Z,100187.84
2023-04-17T09:44:42.403Z,100183.84
2023-04-17T09:47:45.672Z,100185.22
2023-04-17T09:50:47.600Z,100178.03
2023-04-17T09:53:49.467Z,100171.56
2023-04-17T09:56:52.549Z,100165.47
2023-04-17T09:59:59.847Z,100181.94
2023-04-17T10:03:01.984Z,100186.44
2023-04-17T10:06:04.063Z,100178.91
2023-04-17T10:09:06.147Z,100183.41
2023-04-17T10:12:10.893Z,100170.81
2023-04-17T10:15:12.802Z,100171.50
2023-04-17T10:18:23.152Z,100173.81
2023-04-17T10:21:26.105Z,100173.84
2023-04-17T10:24:28.229Z,100168.06
2023-04-17T10:27:33.245Z,100153.41
2023-04-17T10:30:54.936Z,100168.88
2023-04-17T10:33:57.637Z,100178.00
2023-04-17T10:37:01.339Z,100172.63
2023-04-17T10:40:05.732Z,100170.81
2023-04-17T10:43:13.656Z,100170.50
2023-04-17T10:46:15.770Z,100166.00
2023-04-17T10:49:17.770Z,100165.31
2023-04-17T10:52:35.185Z,100144.28
2023-04-17T10:55:38.254Z,100168.97
2023-04-17T10:58:56.111Z,100163.25
2023-04-17T11:01:59.429Z,100171.69
2023-04-17T11:05:10.618Z,100157.94
2023-04-17T11:08:12.480Z,100171.56
2023-04-17T11:11:16.822Z,100171.69
2023-04-17T11:14:21.368Z,100169.00
2023-04-17T11:17:23.410Z,100159.94
2023-04-17T11:20:27.076Z,100157.78
2023-04-17T11:23:36.518Z,100160.13
2023-04-17T11:26:44.817Z,100161.63
2023-04-17T11:29:46.978Z,100165.53
2023-04-17T11:32:48.995Z,100161.78
2023-04-17T11:35:52.490Z,100155.75
2023-04-17T11:38:57.001Z,100152.56
2023-04-17T11:41:59.147Z,100153.19
2023-04-17T11:45:05.235Z,100138.41
2023-04-17T11:48:08.664Z,100137.78
2023-04-17T11:51:10.572Z,100138.97
2023-04-17T11:54:20.493Z,100144.97
2023-04-17T11:57:22.406Z,100135.22
2023-04-17T12:00:29.109Z,100128.81
2023-04-17T12:03:32.776Z,100130.25
2023-04-17T12:06:37.887Z,100145.81
2023-04-17T12:09:39.856Z,100141.75
2023-04-17T12:12:45.165Z,100148.59
2023-04-17T12:15:48.033Z,100139.00
2023-04-17T12:18:50.132Z,100141.78
2023-04-17T12:21:52.588Z,100151.50
2023-04-17T12:24:54.530Z,100129.31
2023-04-17T12:27:57.297Z,100136.66
2023-04-17T12:30:59.201Z,100145.75
2023-04-17T12:34:01.427Z,100147.50
2023-04-17T12:37:03.318Z,100150.31
2023-04-17T12:40:06.141Z,100151.88
2023-04-17T12:43:08.612Z,100145.84
2023-04-17T12:46:10.587Z,100128.87
2023-04-17T12:49:12.658Z,100123.31
2023-04-17T12:52:14.825Z,100120.56
2023-04-17T12:55:16.928Z,100119.13
2023-04-17T12:58:18.821Z,100122.50
2023-04-17T13:01:21.341Z,100115.41
2023-04-17T13:04:23.498Z,100112.53
2023-04-17T13:07:25.622Z,100115.03
2023-04-17T13:10:28.787Z,100107.44
2023-04-17T13:13:33.485Z,100099.75
2023-04-17T13:16:35.462Z,100102.38
2023-04-17T13:19:39.639Z,100099.72
2023-04-17T13:22:41.484Z,100098.47
2023-04-17T13:25:43.548Z,100106.78
2023-04-17T13:28:45.691Z,100098.19
2023-04-17T13:31:47.733Z,100102.03
2023-04-17T13:34:49.701Z,100109.50
2023-04-17T13:37:51.740Z,100107.19
2023-04-17T13:40:53.723Z,100126.81
2023-04-17T13:43:55.849Z,100141.97
2023-04-17T13:46:58.101Z,100143.09
2023-04-17T13:50:00.265Z,100127.25
2023-04-17T13:53:02.558Z,100124.06
2023-04-17T13:56:04.555Z,100123.00
2023-04-17T13:59:06.494Z,100125.66
2023-04-17T14:02:09.571Z,100121.91
2023-04-17T14:05:12.346Z,100113.91
2023-04-17T14:08:14.433Z,100117.63
2023-04-17T14:12:24.317Z,100096.69
2023-04-17T14:15:26.340Z,100096.69
2023-04-17T14:18:28.656Z,100106.25
2023-04-17T14:21:30.494Z,100110.50
2023-04-17T14:24:32.489Z,100108.88
2023-04-17T14:27:36.345Z,100102.13
2023-04-17T14:30:38.597Z,100081.63
2023-04-17T14:33:40.554Z,100096.66
2023-04-17T14:36:43.642Z,100086.34
2023-04-17T14:39:46.103Z,100094.44
2023-04-17T14:42:54.052Z,100088.34
2023-04-17T14:45:57.170Z,100087.87
2023-04-17T14:48:59.132Z,100083.88
2023-04-17T14:52:01.103Z,100102.19
2023-04-17T14:55:05.458Z,100082.91
2023-04-17T14:58:07.436Z,100090.91
2023-04-17T15:01:09.403Z,100083.97
2023-04-17T15:04:11.644Z,100086.34
2023-04-17T15:07:13.825Z,100080.59
2023-04-17T15:10:16.605Z,100085.63
2023-04-17T15:13:18.457Z,100079.12
2023-04-17T15:16:20.423Z,100084.84
2023-04-17T15:19:23.020Z,100070.91
2023-04-17T15:22:25.656Z,100092.34
2023-04-17T15:25:27.583Z,100084.37
2023-04-17T15:28:29.539Z,100090.41
2023-04-17T15:31:31.563Z,100094.84
2023-04-17T15:34:34.475Z,100089.03
2023-04-17T15:37:37.010Z,100094.91
2023-04-17T15:40:39.115Z,100084.22
2023-04-17T15:43:40.937Z,100087.38
2023-04-17T15:46:43.057Z,100083.47
2023-04-17T15:49:48.050Z,100090.28
2023-04-17T15:52:50.017Z,100085.81
2023-04-17T15:55:52.647Z,100097.19
2023-04-17T15:58:54.657Z,100096.88
2023-04-17T16:01:56.788Z,100091.75
2023-04-17T16:04:58.762Z,100100.47
2023-04-17T16:08:01.536Z,100097.91
2023-04-17T16:11:03.613Z,100092.69
2023-04-17T16:14:05.514Z,100092.97
2023-04-17T16:17:07.500Z,100092.09
2023-04-17T16:20:09.768Z,100094.16
2023-04-17T16:23:11.662Z,100091.00
2023-04-17T16:26:13.767Z,100093.31
2023-04-17T16:29:15.704Z,100095.75
2023-04-17T16:32:18.341Z,100084.37
2023-04-17T16:35:20.212Z,100092.84
2023-04-17T16:38:22.214Z,100103.84
2023-04-17T16:41:24.074Z,100103.88
2023-04-17T16:44:27.016Z,100101.47
2023-04-17T16:47:29.455Z,100109.13
2023-04-17T16:50:31.404Z,100104.31
2023-04-17T16:53:33.297Z,100105.44
2023-04-17T16:56:35.552Z,100107.00
2023-04-17T16:59:37.407Z,100090.84
2023-04-17T17:02:39.463Z,100108.03
2023-04-17T17:05:41.350Z,100100.63
2023-04-17T17:08:46.652Z,100107.31
2023-04-17T17:11:48.619Z,100106.75
2023-04-17T17:14:50.586Z,100114.91
2023-04-17T17:17:52.533Z,100108.81
2023-04-17T17:20:56.065Z,100107.06
2023-04-17T17:23:58.279Z,100109.75
2023-04-17T17:27:00.707Z,100106.84
2023-04-17T17:30:02.979Z,100116.28
2023-04-17T17:33:04.925Z,100106.19
2023-04-17T17:36:08.888Z,100111.16
2023-04-17T17:39:11.224Z,100106.09
2023-04-17T17:42:13.194Z,100111.91
2023-04-17T17:45:15.016Z,100108.41
2023-04-17T17:48:18.235Z,100117.41
2023-04-17T17:51:22.122Z,100111.22
2023-04-17T17:54:24.002Z,100116.88
2023-04-17T17:57:29.223Z,100112.69
2023-04-17T18:00:37.449Z,100119.88
2023-04-17T18:03:39.461Z,100116.53
2023-04-17T18:06:41.530Z,100125.94
2023-04-17T18:09:43.399Z,100136.53
2023-04-17T18:12:45.472Z,100132.44
2023-04-17T18:15:47.452Z,100136.72
2023-04-17T18:18:49.384Z,100128.16
2023-04-17T18:21:51.280Z,100139.69
2023-04-17T18:24:54.274Z,100140.31
2023-04-17T18:27:56.240Z,100150.69
2023-04-17T18:30:58.161Z,100145.94
2023-04-17T18:34:02.545Z,100151.25
2023-04-17T18:37:04.461Z,100143.38
2023-04-17T18:40:08.040Z,100159.13
2023-04-17T18:43:10.165Z,100161.12
2023-04-17T18:46:12.035Z,100156.03
2023-04-17T18:49:14.070Z,100153.50
2023-04-17T18:52:15.945Z,100151.59
2023-04-17T18:55:17.897Z,100158.59
2023-04-17T18:58:19.788Z,100159.13
2023-04-17T19:01:21.658Z,100156.22
2023-04-17T19:04:23.619Z,100162.84
2023-04-17T19:07:25.488Z,100172.31
2023-04-17T19:10:27.417Z,100165.09
2023-04-17T19:13:29.316Z,100170.03
2023-04-17T19:16:31.187Z,100181.03
2023-04-17T19:19:33.045Z,100180.16
2023-04-17T19:22:34.899Z,100184.91
2023-04-17T19:25:41.635Z,100172.63
2023-04-17T19:28:43.539Z,100170.59
2023-04-17T19:31:45.471Z,100182.09
2023-04-17T19:34:47.738Z,100184.53
2023-04-17T19:37:49.624Z,100181.53
2023-04-17T19:41:11.899Z,100180.16
2023-04-17T19:44:14.370Z,100168.16
2023-04-17T19:47:16.203Z,100183.94
2023-04-17T19:50:18.027Z,100179.19
2023-04-17T19:53:19.891Z,100174.22
2023-04-17T19:56:21.778Z,100177.88
2023-04-17T19:59:26.895Z,100177.06
2023-04-17T20:02:28.943Z,100155.81
2023-04-17T20:05:30.763Z,100168.91
2023-04-17T20:08:32.627Z,100169.59
2023-04-17T20:11:34.576Z,100179.78
2023-04-17T20:14:36.422Z,100177.88
2023-04-17T20:17:38.418Z,100159.66
2023-04-17T20:20:40.435Z,100171.53
2023-04-17T20:23:42.306Z,100182.25
2023-04-17T20:26:44.373Z,100178.25
2023-04-17T20:29:46.261Z,100180.75
2023-04-17T20:32:48.324Z,100179.84
2023-04-17T20:35:50.351Z,100184.84
2023-04-17T20:38:52.741Z,100186.31
2023-04-17T20:41:54.599Z,100180.53
2023-04-17T20:44:56.495Z,100177.22
2023-04-17T20:47:58.340Z,100193.41
2023-04-17T20:51:05.562Z,100201.59
2023-04-17T20:54:07.566Z,100198.53
2023-04-17T20:57:09.366Z,100189.81
2023-04-17T21:00:12.171Z,100207.13
2023-04-17T21:03:14.114Z,100200.00
2023-04-17T21:06:16.036Z,100209.38
2023-04-17T21:09:18.346Z,100211.19
2023-04-17T21:12:20.218Z,100214.81
2023-04-17T21:15:22.037Z,100208.12
2023-04-17T21:18:25.087Z,100204.38
2023-04-17T21:21:26.941Z,100207.84
2023-04-17T21:24:29.057Z,100201.16
2023-04-17T21:27:30.908Z,100214.19
2023-04-17T21:30:32.912Z,100212.56
2023-04-17T21:33:34.742Z,100209.25
2023-04-17T21:36:36.669Z,100216.34
2023-04-17T21:39:38.582Z,100215.06
2023-04-17T21:42:40.483Z,100192.31
2023-04-17T21:45:42.373Z,100198.72
2023-04-17T21:48:44.236Z,100205.34
2023-04-17T21:51:46.064Z,100206.94
2023-04-17T21:54:47.913Z,100210.69
2023-04-17T21:57:49.889Z,100211.28
2023-04-17T22:00:51.773Z,100202.47
2023-04-17T22:03:53.768Z,100213.91
2023-04-17T22:06:55.614Z,100200.25
2023-04-17T22:09:59.103Z,100208.62
2023-04-17T22:13:01.012Z,100210.69
2023-04-17T22:16:03.159Z,100202.84
2023-04-17T22:19:05.212Z,100208.25
2023-04-17T22:22:07.010Z,100207.59
2023-04-17T22:25:09.080Z,100206.75
2023-04-17T22:28:10.955Z,100211.09
2023-04-17T22:31:15.912Z,100211.47
2023-04-17T22:34:17.780Z,100212.31
2023-04-17T22:37:19.671Z,100218.56
2023-04-17T22:40:21.534Z,100211.28
2023-04-17T22:43:23.397Z,100212.34
2023-04-17T22:46:25.207Z,100213.91
2023-04-17T22:49:27.100Z,100232.38
2023-04-17T22:52:28.965Z,100225.47
2023-04-17T22:55:30.855Z,100232.84
2023-04-17T22:58:33.601Z,100226.31
2023-04-17T23:01:35.564Z,100227.81
2023-04-17T23:04:37.483Z,100232.38
2023-04-17T23:07:40.090Z,100235.69
2023-04-17T23:10:41.996Z,100233.06
2023-04-17T23:13:43.853Z,100232.28
2023-04-17T23:16:45.670Z,100234.19
2023-04-17T23:19:48.055Z,100230.91
2023-04-17T23:22:49.899Z,100235.84
2023-04-17T23:25:52.261Z,100230.31
2023-04-17T23:28:54.074Z,100231.22
2023-04-17T23:31:56.016Z,100235.94
2023-04-17T23:34:57.904Z,100233.00
2023-04-17T23:37:59.729Z,100233.53
2023-04-17T23:41:01.637Z,100221.88
2023-04-17T23:44:03.934Z,100229.94
2023-04-17T23:47:06.267Z,100226.19
2023-04-17T23:50:08.400Z,100216.28
2023-04-17T23:53:10.239Z,100211.03
2023-04-17T23:56:12.266Z,100214.56
2023-04-17T23:59:14.180Z,100216.84
